Aviation Digital Data Service (ADDS)

Output produced by TAFs form (1030 UTC 20 July 2018)
found at http://aviationweather.gov/adds/tafs/
 
METAR text: KMHR 200630Z 13008KT 10SM SKC 19/08 A2981
Conditions at: KMHR (MATHER FIELD , CA, US) observed 0630 UTC 20 July 2018
Temperature: 19.0°C (66°F)
Dewpoint: 8.0°C (46°F) [RH = 49%]
Pressure (altimeter): 29.81 inches Hg (1009.6 mb)
Winds: from the SE (130 degrees) at 9 MPH (8 knots; 4.2 m/s)
Visibility: 10 or more miles (16+ km)
Ceiling: at least 12,000 feet AGL
Clouds: clear skies
Weather: no significant weather observed at this time

Forecast for: KMHR (MATHER FIELD , CA, US)
Text: KMHR 200520Z 2006/2106 14006KT P6SM SKC
Forecast period: 0600 to 1500 UTC 20 July 2018
Forecast type: FROM: standard forecast or significant change
Winds: from the SE (140 degrees) at 7 MPH (6 knots; 3.1 m/s)
Visibility: 6 or more miles (10+ km)
Clouds: clear skies
Weather: no significant weather forecast for this period
Text: FM201500 20008KT P6SM SKC
Forecast period: 1500 UTC 20 July 2018 to 0600 UTC 21 July 2018
Forecast type: FROM: standard forecast or significant change
Winds: from the SSW (200 degrees) at 9 MPH (8 knots; 4.2 m/s)
Visibility: 6 or more miles (10+ km)
Clouds: clear skies
Weather: no significant weather forecast for this period